Time;durP1;ratioP1;P1;durP2;ratioP2;P2;SDS_P1;SDS_P2;PMS_P1;PMS_P2;Temp;Humidity;BMP_temperature;BMP_pressure;BME280_temperature;BME280_humidity;BME280_pressure;Samples;Min_cycle;Max_cycle;Signal;HPM_P1;HPM_P2
2023/09/16 00:01:39;;;;;;;25.45;23.23;;;13.30;99.90;;;;;;4971688;28;21621;-74
2023/09/16 00:04:07;;;;;;;26.45;23.83;;;13.40;99.90;;;;;;4976030;28;20043;-75
2023/09/16 00:06:34;;;;;;;27.38;23.35;;;13.40;99.90;;;;;;4976825;28;20066;-75
2023/09/16 00:09:01;;;;;;;26.63;24.13;;;13.40;99.90;;;;;;4973086;28;20038;-75
2023/09/16 00:11:29;;;;;;;26.30;23.88;;;13.40;99.90;;;;;;4969612;28;20046;-74
2023/09/16 00:13:56;;;;;;;25.77;23.30;;;13.30;99.90;;;;;;4958795;28;20136;-74
2023/09/16 00:16:22;;;;;;;26.90;24.58;;;13.30;99.90;;;;;;4969410;28;20108;-73
2023/09/16 00:18:49;;;;;;;26.33;23.83;;;13.30;99.90;;;;;;4957488;28;20699;-75
2023/09/16 00:21:17;;;;;;;26.45;24.08;;;13.20;99.90;;;;;;4939260;28;20039;-74
2023/09/16 00:23:44;;;;;;;27.10;24.42;;;13.30;99.90;;;;;;4973381;28;20562;-74
2023/09/16 00:26:13;;;;;;;26.52;23.85;;;13.30;99.90;;;;;;4979117;28;20050;-74
2023/09/16 00:28:44;;;;;;;27.08;24.73;;;13.40;99.90;;;;;;4944144;28;20088;-74
2023/09/16 00:31:11;;;;;;;26.40;23.90;;;13.50;99.90;;;;;;4946211;28;20129;-75
2023/09/16 00:33:38;;;;;;;24.50;22.55;;;13.50;99.90;;;;;;4975927;28;20072;-75
2023/09/16 00:36:05;;;;;;;27.02;24.00;;;13.50;99.90;;;;;;4943270;28;20067;-75
2023/09/16 00:38:32;;;;;;;24.42;22.30;;;13.40;99.90;;;;;;4949424;28;20058;-75
2023/09/16 00:40:59;;;;;;;26.38;23.90;;;13.30;99.90;;;;;;4944397;28;20042;-75
2023/09/16 00:43:26;;;;;;;26.90;24.40;;;13.30;99.90;;;;;;4961086;28;20058;-75
2023/09/16 00:45:52;;;;;;;27.58;25.13;;;13.30;99.90;;;;;;4957267;28;20038;-74
2023/09/16 00:48:19;;;;;;;26.40;24.13;;;13.30;99.90;;;;;;4958685;28;20070;-75
2023/09/16 00:50:46;;;;;;;27.75;25.15;;;13.40;99.90;;;;;;4958978;28;20381;-75
2023/09/16 00:53:15;;;;;;;26.38;24.15;;;13.30;99.90;;;;;;4939200;28;20062;-74
2023/09/16 00:55:47;;;;;;;26.10;23.67;;;13.30;99.90;;;;;;4960297;28;20077;-75
2023/09/16 00:58:17;;;;;;;26.40;23.83;;;13.30;99.90;;;;;;4973523;28;20047;-75
2023/09/16 01:00:46;;;;;;;26.02;23.73;;;13.30;99.90;;;;;;4978571;28;20096;-76
2023/09/16 01:03:14;;;;;;;26.38;23.88;;;13.40;99.90;;;;;;4941064;28;20467;-75
2023/09/16 01:05:46;;;;;;;25.38;23.00;;;13.50;99.90;;;;;;4949041;28;20129;-74
2023/09/16 01:08:15;;;;;;;25.98;23.52;;;13.50;99.90;;;;;;4956879;28;20057;-74
2023/09/16 01:10:42;;;;;;;25.33;22.85;;;13.50;99.90;;;;;;4939308;28;20047;-75
2023/09/16 01:13:09;;;;;;;25.63;23.30;;;13.50;99.90;;;;;;4965151;28;20046;-75
2023/09/16 01:15:46;;;;;;;24.45;21.98;;;13.60;99.90;;;;;;5012494;28;20107;-75
2023/09/16 01:18:21;;;;;;;23.77;21.67;;;13.50;99.90;;;;;;4956413;28;20153;-75
2023/09/16 01:20:48;;;;;;;;;;;13.50;99.90;;;;;;4974851;28;20045;-75
2023/09/16 01:23:18;;;;;;;25.77;23.50;;;13.50;99.90;;;;;;4969962;28;19928;-76
2023/09/16 01:25:45;;;;;;;25.63;23.15;;;13.40;99.90;;;;;;4969835;28;20062;-76
2023/09/16 01:28:12;;;;;;;27.17;24.48;;;13.40;99.90;;;;;;4966853;28;20547;-75
2023/09/16 01:30:46;;;;;;;28.23;25.58;;;13.40;99.90;;;;;;4948023;28;20116;-75
2023/09/16 01:33:36;;;;;;;26.77;24.58;;;13.40;99.90;;;;;;4968081;28;20136;-74
2023/09/16 01:36:09;;;;;;;26.60;24.20;;;13.40;99.90;;;;;;4977501;28;20051;-75
2023/09/16 01:38:37;;;;;;;27.48;25.10;;;13.30;99.90;;;;;;4971906;28;20069;-75
2023/09/16 01:41:05;;;;;;;26.90;24.15;;;13.20;99.90;;;;;;4960669;28;20050;-74
2023/09/16 01:43:32;;;;;;;26.92;24.55;;;13.20;99.90;;;;;;4947950;28;20149;-75
2023/09/16 01:45:58;;;;;;;25.63;23.27;;;13.10;99.90;;;;;;4954339;28;20050;-76
2023/09/16 01:48:25;;;;;;;27.30;24.58;;;13.00;99.90;;;;;;4938143;28;20047;-75
2023/09/16 01:51:06;;;;;;;28.08;25.13;;;13.00;99.90;;;;;;4981310;28;20596;-75
2023/09/16 01:53:33;;;;;;;28.63;25.80;;;13.00;99.90;;;;;;4948965;28;20047;-75
2023/09/16 01:55:59;;;;;;;27.13;24.52;;;13.00;99.90;;;;;;4952524;28;20106;-75
2023/09/16 01:58:26;;;;;;;28.35;25.50;;;12.90;99.90;;;;;;4966301;28;20061;-75
2023/09/16 02:00:53;;;;;;;29.95;26.58;;;12.90;99.90;;;;;;4961131;28;20075;-75
2023/09/16 02:03:20;;;;;;;29.20;26.30;;;12.80;99.90;;;;;;5032096;28;20673;-75
2023/09/16 02:05:47;;;;;;;28.77;25.88;;;12.80;99.90;;;;;;4955516;28;21486;-75
2023/09/16 02:08:14;;;;;;;29.45;26.33;;;12.70;99.90;;;;;;4954173;28;20074;-75
2023/09/16 02:10:41;;;;;;;29.48;26.30;;;12.70;99.90;;;;;;4958241;28;20519;-76
2023/09/16 02:13:08;;;;;;;29.17;26.13;;;12.60;99.90;;;;;;4953796;28;20116;-75
2023/09/16 02:15:35;;;;;;;29.20;26.27;;;12.60;99.90;;;;;;4965135;28;20043;-75
2023/09/16 02:18:02;;;;;;;29.38;26.25;;;12.70;99.90;;;;;;4949791;28;20058;-75
2023/09/16 02:20:29;;;;;;;30.40;27.02;;;12.70;99.90;;;;;;4982669;28;20427;-75
2023/09/16 02:22:56;;;;;;;31.48;27.40;;;12.60;99.90;;;;;;4960258;28;20064;-75
2023/09/16 02:25:23;;;;;;;28.50;25.13;;;12.50;99.90;;;;;;4957231;28;20058;-76
2023/09/16 02:27:50;;;;;;;28.80;25.92;;;12.60;99.90;;;;;;5035972;28;20126;-75
2023/09/16 02:30:18;;;;;;;28.67;25.88;;;12.70;99.90;;;;;;4973324;28;20046;-75
2023/09/16 02:32:44;;;;;;;28.13;25.38;;;12.60;99.90;;;;;;4967627;28;20058;-75
2023/09/16 02:35:11;;;;;;;28.98;26.08;;;12.60;99.90;;;;;;4947875;28;20035;-75
2023/09/16 02:37:38;;;;;;;32.47;27.23;;;12.70;99.90;;;;;;4941817;28;20064;-75
2023/09/16 02:40:06;;;;;;;32.25;28.35;;;12.50;99.90;;;;;;4962134;28;20644;-75
2023/09/16 02:42:32;;;;;;;30.88;27.67;;;12.40;99.90;;;;;;5018536;28;20044;-75
2023/09/16 02:44:59;;;;;;;28.85;25.90;;;12.40;99.90;;;;;;4959148;28;20049;-75
2023/09/16 02:47:27;;;;;;;29.10;26.30;;;12.50;99.90;;;;;;4970378;28;20065;-75
2023/09/16 02:49:54;;;;;;;28.52;25.70;;;12.50;99.90;;;;;;4955545;28;20153;-75
2023/09/16 02:52:21;;;;;;;29.15;26.13;;;12.60;99.90;;;;;;4980018;28;20042;-76
2023/09/16 02:54:48;;;;;;;31.58;27.52;;;12.60;99.90;;;;;;4953802;28;20063;-75
2023/09/16 02:57:14;;;;;;;30.23;27.05;;;12.60;99.90;;;;;;4978226;28;20050;-76
2023/09/16 02:59:41;;;;;;;32.50;28.15;;;12.60;99.90;;;;;;4954403;28;21039;-76
2023/09/16 03:02:08;;;;;;;29.15;26.23;;;12.60;99.90;;;;;;4958072;28;20057;-75
2023/09/16 03:04:36;;;;;;;29.67;26.60;;;12.50;99.90;;;;;;4956887;28;20047;-75
2023/09/16 03:07:04;;;;;;;30.00;26.95;;;12.40;99.90;;;;;;4967094;28;20038;-75
2023/09/16 03:09:31;;;;;;;29.83;26.80;;;12.40;99.90;;;;;;4955443;28;20710;-76
2023/09/16 03:11:58;;;;;;;31.00;27.75;;;12.40;99.90;;;;;;4963919;28;20042;-76
2023/09/16 03:14:24;;;;;;;33.13;29.65;;;12.40;99.90;;;;;;4962568;28;20700;-76
2023/09/16 03:16:52;;;;;;;33.22;28.20;;;12.40;99.90;;;;;;4944237;28;20054;-76
2023/09/16 03:19:19;;;;;;;31.25;28.05;;;12.40;99.90;;;;;;4974561;28;20039;-75
2023/09/16 03:21:47;;;;;;;33.67;28.83;;;12.40;99.90;;;;;;4979283;28;20538;-76
2023/09/16 03:24:13;;;;;;;32.92;29.45;;;12.40;99.90;;;;;;4992847;28;20047;-76
2023/09/16 03:26:41;;;;;;;34.33;29.38;;;12.40;99.90;;;;;;4954325;28;20059;-76
2023/09/16 03:29:11;;;;;;;35.63;28.63;;;12.40;99.90;;;;;;4945811;28;20077;-76
2023/09/16 03:31:37;;;;;;;32.78;28.73;;;12.60;99.90;;;;;;4957871;28;20050;-75
2023/09/16 03:34:10;;;;;;;35.13;30.02;;;12.50;99.90;;;;;;4974005;28;20057;-75
2023/09/16 03:36:37;;;;;;;31.30;27.95;;;12.40;99.90;;;;;;4954207;28;20046;-74
2023/09/16 03:39:05;;;;;;;30.90;27.65;;;12.40;99.90;;;;;;4960390;28;20061;-75
2023/09/16 03:41:31;;;;;;;31.90;28.58;;;12.40;99.90;;;;;;4955112;28;20110;-74
2023/09/16 03:44:01;;;;;;;29.30;25.85;;;12.50;99.90;;;;;;4957978;28;20046;-75
2023/09/16 03:46:31;;;;;;;31.73;27.60;;;12.40;99.90;;;;;;4987044;28;20043;-76
2023/09/16 03:49:00;;;;;;;31.63;27.80;;;12.50;99.90;;;;;;4981741;28;20573;-74
2023/09/16 03:51:27;;;;;;;30.13;27.23;;;12.50;99.90;;;;;;4954196;28;20478;-75
2023/09/16 03:53:55;;;;;;;30.08;27.08;;;12.40;99.90;;;;;;4956142;28;20079;-76
2023/09/16 03:56:22;;;;;;;33.53;28.83;;;12.40;99.90;;;;;;4984611;28;20147;-75
2023/09/16 03:58:49;;;;;;;36.08;29.25;;;12.40;99.90;;;;;;4943626;28;20533;-75
2023/09/16 04:01:19;;;;;;;31.52;28.10;;;12.40;99.90;;;;;;4970251;28;20045;-75
2023/09/16 04:03:47;;;;;;;31.65;28.33;;;12.40;99.90;;;;;;4954664;28;20046;-75
2023/09/16 04:06:14;;;;;;;31.77;28.52;;;12.50;99.90;;;;;;4957391;28;20062;-76
2023/09/16 04:08:41;;;;;;;31.10;27.60;;;12.60;99.90;;;;;;4940143;28;20290;-75
2023/09/16 04:11:09;;;;;;;29.77;26.98;;;12.60;99.90;;;;;;4959391;28;20054;-75
2023/09/16 04:13:37;;;;;;;31.52;28.25;;;12.70;99.90;;;;;;4942646;28;20064;-75
2023/09/16 04:16:04;;;;;;;31.30;28.20;;;12.70;99.90;;;;;;4958532;28;20043;-74
2023/09/16 04:18:31;;;;;;;31.85;28.73;;;12.60;99.90;;;;;;4956351;28;20051;-75
2023/09/16 04:20:58;;;;;;;31.77;28.50;;;12.60;99.90;;;;;;4956866;28;20039;-75
2023/09/16 04:23:25;;;;;;;30.92;27.85;;;12.60;99.90;;;;;;4982741;28;20746;-74
2023/09/16 04:25:57;;;;;;;29.92;27.23;;;12.60;99.90;;;;;;4953271;28;20078;-75
2023/09/16 04:28:24;;;;;;;30.63;27.52;;;12.70;99.90;;;;;;4973492;28;20053;-76
2023/09/16 04:30:53;;;;;;;30.30;27.08;;;12.70;99.90;;;;;;4967479;28;20044;-75
2023/09/16 04:33:21;;;;;;;29.70;27.05;;;12.70;99.90;;;;;;4969014;28;20129;-76
2023/09/16 04:35:50;;;;;;;29.02;26.30;;;12.90;99.90;;;;;;5017663;28;20038;-75
2023/09/16 04:38:18;;;;;;;29.17;26.42;;;12.90;99.90;;;;;;4959137;28;20055;-75
2023/09/16 04:40:47;;;;;;;28.90;26.00;;;12.90;99.90;;;;;;4973783;28;20048;-76
2023/09/16 04:43:15;;;;;;;28.35;25.83;;;12.80;99.90;;;;;;4960991;28;20038;-75
2023/09/16 04:45:48;;;;;;;29.30;26.52;;;12.80;99.90;;;;;;4950746;28;20886;-75
2023/09/16 04:48:22;;;;;;;30.33;27.50;;;12.70;99.90;;;;;;4976948;28;20100;-74
2023/09/16 04:50:50;;;;;;;32.15;29.20;;;12.60;99.90;;;;;;4962841;28;20060;-74
2023/09/16 04:53:18;;;;;;;30.10;27.20;;;12.70;99.90;;;;;;4959638;28;20057;-74
2023/09/16 04:55:45;;;;;;;30.02;27.48;;;12.60;99.90;;;;;;4976335;28;20141;-77
2023/09/16 04:58:12;;;;;;;30.15;27.27;;;12.60;99.90;;;;;;4981492;28;20138;-76
2023/09/16 05:00:39;;;;;;;30.25;27.08;;;12.60;99.90;;;;;;4960858;28;20135;-76
2023/09/16 05:03:06;;;;;;;27.95;25.45;;;12.70;99.90;;;;;;4971074;28;20125;-77
2023/09/16 05:05:35;;;;;;;28.40;26.00;;;12.70;99.90;;;;;;5022964;28;20122;-76
2023/09/16 05:08:03;;;;;;;25.90;23.50;;;12.80;99.90;;;;;;5033232;28;20042;-77
2023/09/16 05:10:31;;;;;;;26.73;24.42;;;12.90;99.90;;;;;;4971336;28;20065;-77
2023/09/16 05:12:58;;;;;;;26.25;23.80;;;13.00;99.90;;;;;;4959265;28;20054;-76
2023/09/16 05:15:27;;;;;;;26.20;23.90;;;13.10;99.90;;;;;;4973749;28;20042;-76
2023/09/16 05:17:54;;;;;;;27.10;24.77;;;13.10;99.90;;;;;;4961668;28;20700;-77
2023/09/16 05:20:21;;;;;;;25.92;23.40;;;13.30;99.90;;;;;;4956679;28;20523;-76
2023/09/16 05:22:50;;;;;;;26.88;24.63;;;13.30;99.90;;;;;;4955322;28;20137;-76
2023/09/16 05:25:21;;;;;;;25.67;23.80;;;13.30;99.90;;;;;;4964910;28;20050;-76
2023/09/16 05:27:48;;;;;;;27.02;24.70;;;13.30;99.90;;;;;;4970161;28;20054;-77
2023/09/16 05:30:15;;;;;;;27.23;24.98;;;13.20;99.90;;;;;;4950822;28;20503;-77
2023/09/16 05:32:44;;;;;;;28.08;25.10;;;13.20;99.90;;;;;;4980712;28;20646;-76
2023/09/16 05:35:11;;;;;;;26.42;24.20;;;13.20;99.90;;;;;;4964574;28;20057;-76
2023/09/16 05:37:38;;;;;;;26.25;24.17;;;13.10;99.90;;;;;;4954527;28;20096;-76
2023/09/16 05:40:06;;;;;;;26.67;24.40;;;13.10;99.90;;;;;;4953900;28;20091;-77
2023/09/16 05:42:34;;;;;;;25.98;23.88;;;13.20;99.90;;;;;;4970742;28;20042;-74
2023/09/16 05:45:06;;;;;;;25.05;23.05;;;13.20;99.90;;;;;;4938332;28;20055;-75
2023/09/16 05:47:33;;;;;;;24.08;22.08;;;13.30;99.90;;;;;;4976274;28;20061;-74
2023/09/16 05:50:00;;;;;;;23.27;21.45;;;13.40;99.90;;;;;;4936927;28;20066;-75
2023/09/16 05:52:28;;;;;;;23.35;21.33;;;13.40;99.90;;;;;;4955040;28;20074;-75
2023/09/16 05:54:56;;;;;;;23.25;21.25;;;13.50;99.90;;;;;;4965030;28;20050;-75
2023/09/16 05:57:24;;;;;;;25.30;22.88;;;13.50;99.90;;;;;;4945206;28;20050;-75
2023/09/16 05:59:51;;;;;;;23.15;21.35;;;13.60;99.90;;;;;;4970505;28;20133;-74
2023/09/16 06:02:19;;;;;;;23.63;21.55;;;13.70;99.90;;;;;;4945738;28;20042;-75
2023/09/16 06:04:46;;;;;;;23.10;21.00;;;13.70;99.90;;;;;;4956824;28;20061;-74
2023/09/16 06:07:13;;;;;;;22.02;20.23;;;13.80;99.90;;;;;;4977840;28;20038;-74
2023/09/16 06:09:40;;;;;;;21.23;19.60;;;13.90;99.90;;;;;;4960726;28;20039;-75
2023/09/16 06:12:07;;;;;;;21.23;19.50;;;14.00;99.90;;;;;;4962054;28;20145;-75
2023/09/16 06:14:34;;;;;;;20.45;18.77;;;14.10;99.90;;;;;;4958470;28;20050;-74
2023/09/16 06:17:01;;;;;;;19.15;17.65;;;14.20;99.90;;;;;;4970801;28;20047;-73
2023/09/16 06:19:29;;;;;;;19.45;17.88;;;14.30;99.90;;;;;;4973793;28;20038;-75
2023/09/16 06:21:57;;;;;;;19.52;18.10;;;14.40;99.90;;;;;;4947558;28;20038;-75
2023/09/16 06:24:24;;;;;;;21.73;19.70;;;14.50;99.90;;;;;;4952033;28;20050;-73
2023/09/16 06:26:52;;;;;;;20.73;19.05;;;14.60;99.90;;;;;;4956186;28;20042;-73
2023/09/16 06:29:20;;;;;;;20.58;18.80;;;14.70;99.90;;;;;;4956345;28;20042;-73
2023/09/16 06:31:46;;;;;;;21.35;19.83;;;14.70;99.90;;;;;;4962103;28;20046;-72
2023/09/16 06:34:14;;;;;;;20.23;18.73;;;14.80;99.90;;;;;;4966536;28;20054;-74
2023/09/16 06:36:41;;;;;;;20.48;19.00;;;14.80;99.90;;;;;;4967415;28;20101;-72
2023/09/16 06:39:11;;;;;;;21.77;19.95;;;14.90;99.90;;;;;;4946350;28;20058;-76
2023/09/16 06:41:38;;;;;;;20.88;19.23;;;15.00;99.90;;;;;;4948490;28;20074;-75
2023/09/16 06:44:12;;;;;;;20.85;19.35;;;15.00;99.90;;;;;;4973136;28;20077;-74
2023/09/16 06:46:40;;;;;;;20.38;18.70;;;15.10;99.90;;;;;;4962624;28;20062;-75
2023/09/16 06:49:07;;;;;;;21.98;20.30;;;15.20;99.90;;;;;;4956949;28;20701;-75
2023/09/16 06:51:34;;;;;;;21.70;20.00;;;15.20;99.90;;;;;;4977144;28;20487;-74
2023/09/16 06:54:01;;;;;;;21.58;19.88;;;15.30;99.90;;;;;;4951650;28;20050;-74
2023/09/16 06:56:29;;;;;;;21.40;19.83;;;15.40;99.90;;;;;;4959876;28;20050;-74
2023/09/16 06:58:56;;;;;;;21.58;19.95;;;15.40;99.90;;;;;;4962359;28;20053;-73
2023/09/16 07:01:23;;;;;;;21.98;20.27;;;15.50;99.90;;;;;;4956245;28;20078;-73
2023/09/16 07:03:50;;;;;;;21.83;20.05;;;15.60;99.90;;;;;;4966907;28;20456;-73
2023/09/16 07:06:17;;;;;;;22.88;20.85;;;15.70;99.90;;;;;;4954501;28;20038;-74
2023/09/16 07:08:44;;;;;;;21.38;19.88;;;15.70;99.90;;;;;;4983698;28;20719;-75
2023/09/16 07:11:13;;;;;;;21.42;19.92;;;15.80;99.90;;;;;;4963374;28;20394;-75
2023/09/16 07:13:40;;;;;;;22.00;20.35;;;15.80;99.90;;;;;;4949517;28;20484;-74
2023/09/16 07:16:10;;;;;;;21.20;19.67;;;15.90;99.90;;;;;;4954424;28;21794;-73
2023/09/16 07:18:37;;;;;;;21.17;19.73;;;16.10;99.90;;;;;;4979356;28;20053;-75
2023/09/16 07:21:04;;;;;;;22.00;20.50;;;16.30;99.90;;;;;;4963129;28;20047;-77
2023/09/16 07:23:31;;;;;;;23.38;21.70;;;16.50;99.90;;;;;;4959092;28;20039;-76
2023/09/16 07:25:59;;;;;;;23.05;21.50;;;16.70;99.90;;;;;;4963356;28;20107;-76
2023/09/16 07:28:27;;;;;;;22.05;20.67;;;17.00;99.90;;;;;;4957765;28;20246;-76
2023/09/16 07:30:55;;;;;;;24.00;22.27;;;17.30;99.90;;;;;;4937123;28;20046;-76
2023/09/16 07:33:22;;;;;;;23.38;21.83;;;17.50;99.90;;;;;;4945842;28;20054;-76
2023/09/16 07:35:51;;;;;;;23.70;22.10;;;17.70;99.90;;;;;;4956878;28;20947;-76
2023/09/16 07:38:18;;;;;;;22.42;21.02;;;18.00;99.90;;;;;;4963120;28;20460;-75
2023/09/16 07:40:44;;;;;;;23.38;21.77;;;18.10;99.90;;;;;;4980781;28;20055;-75
2023/09/16 07:43:12;;;;;;;23.60;22.20;;;18.20;99.90;;;;;;4970221;28;20197;-76
2023/09/16 07:45:41;;;;;;;23.48;21.98;;;18.40;99.90;;;;;;4959570;28;20061;-75
2023/09/16 07:48:09;;;;;;;24.98;23.13;;;18.60;99.90;;;;;;5039455;28;20050;-75
2023/09/16 07:50:36;;;;;;;23.67;22.15;;;18.60;99.90;;;;;;4972582;28;20089;-75
2023/09/16 07:53:03;;;;;;;22.85;21.55;;;18.80;99.90;;;;;;4963010;28;20131;-75
2023/09/16 07:55:30;;;;;;;24.13;22.60;;;19.20;99.90;;;;;;4961097;28;20066;-75
2023/09/16 07:57:56;;;;;;;23.95;22.00;;;19.30;99.90;;;;;;4958996;28;20050;-76
2023/09/16 08:00:23;;;;;;;23.80;22.35;;;19.30;99.90;;;;;;4974013;28;20659;-76
2023/09/16 08:02:50;;;;;;;23.30;21.80;;;19.60;99.90;;;;;;4972446;28;20047;-74
2023/09/16 08:05:17;;;;;;;23.83;22.23;;;19.70;99.90;;;;;;4968371;28;20046;-76
2023/09/16 08:07:55;;;;;;;24.77;23.23;;;19.90;99.90;;;;;;4956087;28;20048;-75
2023/09/16 08:10:51;;;;;;;24.70;23.00;;;20.00;99.90;;;;;;4957145;28;20676;-76
2023/09/16 08:13:18;;;;;;;25.60;23.75;;;20.10;99.90;;;;;;4969198;28;20100;-75
2023/09/16 08:15:45;;;;;;;23.88;22.38;;;20.60;99.90;;;;;;4959908;28;21115;-75
2023/09/16 08:18:12;;;;;;;25.23;23.63;;;20.70;99.90;;;;;;4971593;28;20052;-76
2023/09/16 08:20:39;;;;;;;23.98;22.42;;;21.00;99.90;;;;;;4952767;28;20057;-76
2023/09/16 08:23:08;;;;;;;25.40;23.67;;;21.00;99.90;;;;;;4957212;28;20042;-75
2023/09/16 08:25:35;;;;;;;24.23;22.63;;;21.20;99.90;;;;;;4959280;28;20503;-75
2023/09/16 08:28:08;;;;;;;25.23;23.45;;;21.40;99.90;;;;;;4953699;28;20618;-73
2023/09/16 08:30:35;;;;;;;26.10;24.35;;;21.20;99.90;;;;;;4956314;28;20661;-74
2023/09/16 08:33:01;;;;;;;26.00;24.25;;;21.40;99.90;;;;;;4973137;28;20050;-75
2023/09/16 08:35:28;;;;;;;26.55;24.95;;;21.30;99.90;;;;;;4954930;28;21018;-76
2023/09/16 08:38:03;;;;;;;25.48;23.77;;;21.50;99.90;;;;;;4968547;28;20054;-74
2023/09/16 08:40:33;;;;;;;27.20;25.60;;;21.40;99.90;;;;;;4960502;28;20058;-75
2023/09/16 08:43:21;;;;;;;26.55;24.77;;;21.30;99.90;;;;;;4947309;28;20045;-76
2023/09/16 08:45:58;;;;;;;26.10;24.30;;;21.10;99.90;;;;;;4952102;28;20148;-74
2023/09/16 08:48:26;;;;;;;27.35;25.73;;;21.30;99.90;;;;;;4974621;28;20160;-75
2023/09/16 08:50:55;;;;;;;27.15;25.52;;;21.40;99.90;;;;;;4972914;28;20046;-74
2023/09/16 08:53:32;;;;;;;26.35;24.80;;;21.40;99.90;;;;;;5040168;28;20672;-74
2023/09/16 08:56:16;;;;;;;26.95;25.35;;;21.10;99.90;;;;;;4967637;28;20124;-75
2023/09/16 08:58:44;;;;;;;26.33;24.42;;;21.50;99.90;;;;;;4970536;28;20042;-74
2023/09/16 09:01:13;;;;;;;27.05;25.35;;;21.60;99.90;;;;;;4956773;28;20139;-74
2023/09/16 09:03:40;;;;;;;27.52;25.80;;;21.80;99.90;;;;;;4977647;28;20134;-75
2023/09/16 09:06:08;;;;;;;26.42;24.38;;;22.20;99.90;;;;;;4965705;28;20133;-74
2023/09/16 09:08:34;;;;;;;26.25;24.55;;;21.90;99.90;;;;;;4960412;28;20666;-74
2023/09/16 09:11:01;;;;;;;27.13;25.33;;;21.90;99.90;;;;;;4975665;28;20042;-74
2023/09/16 09:13:29;;;;;;;27.23;25.63;;;21.70;99.90;;;;;;4942489;28;20044;-73
2023/09/16 09:16:00;;;;;;;26.83;25.23;;;21.70;99.90;;;;;;4973437;28;20076;-74
2023/09/16 09:18:29;;;;;;;27.38;25.77;;;21.50;99.90;;;;;;4956760;28;20435;-74
2023/09/16 09:20:56;;;;;;;26.48;24.77;;;21.90;99.90;;;;;;4993326;28;20068;-73
2023/09/16 09:23:26;;;;;;;26.73;25.13;;;22.30;99.90;;;;;;4976696;28;20053;-75
2023/09/16 09:25:53;;;;;;;28.48;26.67;;;22.30;99.90;;;;;;4958359;28;20076;-73
2023/09/16 09:28:33;;;;;;;27.98;26.27;;;22.40;99.90;;;;;;5036111;28;20051;-72
2023/09/16 09:31:00;;;;;;;27.83;26.02;;;22.70;99.90;;;;;;4964168;28;20062;-73
2023/09/16 09:33:28;;;;;;;28.70;27.00;;;22.80;99.90;;;;;;4975691;28;20052;-73
2023/09/16 09:36:15;;;;;;;29.02;26.75;;;22.90;99.90;;;;;;4957742;28;20038;-73
2023/09/16 09:38:46;;;;;;;29.98;27.98;;;23.10;99.90;;;;;;4980216;28;20773;-73
2023/09/16 09:41:14;;;;;;;29.10;27.30;;;22.80;99.90;;;;;;4966735;28;20182;-73
2023/09/16 09:43:41;;;;;;;30.38;28.25;;;22.80;99.90;;;;;;4976015;28;20066;-73
2023/09/16 09:46:08;;;;;;;29.55;27.63;;;22.80;99.90;;;;;;4968491;28;20039;-73
2023/09/16 09:48:36;;;;;;;28.85;27.05;;;22.60;99.90;;;;;;4960082;28;20046;-73
2023/09/16 09:51:08;;;;;;;28.77;26.95;;;22.60;99.90;;;;;;4977383;28;20045;-73
2023/09/16 09:53:36;;;;;;;29.25;27.50;;;22.90;99.90;;;;;;4955564;28;20136;-74
2023/09/16 09:56:03;;;;;;;29.77;27.77;;;22.80;99.90;;;;;;4966283;28;20504;-73
2023/09/16 09:58:31;;;;;;;28.27;26.55;;;23.10;99.90;;;;;;4966470;28;20040;-73
2023/09/16 10:00:59;;;;;;;30.20;28.00;;;23.20;99.90;;;;;;4955056;28;20628;-72
2023/09/16 10:03:27;;;;;;;29.23;27.33;;;23.20;99.90;;;;;;4979258;28;20498;-72
2023/09/16 10:05:58;;;;;;;30.80;28.85;;;23.10;99.90;;;;;;4961694;28;20377;-73
2023/09/16 10:08:27;;;;;;;31.63;29.58;;;23.10;99.90;;;;;;4958308;28;20066;-73
2023/09/16 10:10:54;;;;;;;30.40;28.60;;;23.10;99.90;;;;;;4969654;28;20824;-72
2023/09/16 10:13:21;;;;;;;31.80;29.75;;;22.70;99.90;;;;;;4961513;28;20713;-72
2023/09/16 10:15:48;;;;;;;29.58;27.67;;;22.80;99.90;;;;;;4968043;28;20137;-73
2023/09/16 10:18:16;;;;;;;30.15;28.35;;;23.10;99.90;;;;;;4957402;28;20050;-72
2023/09/16 10:20:43;;;;;;;30.58;28.67;;;23.20;99.90;;;;;;4967680;28;20050;-73
2023/09/16 10:23:11;;;;;;;30.83;28.73;;;23.10;99.90;;;;;;4950818;28;23080;-72
2023/09/16 10:25:38;;;;;;;31.13;29.05;;;23.10;99.90;;;;;;4956448;28;20045;-72
2023/09/16 10:28:08;;;;;;;29.85;28.02;;;23.20;99.90;;;;;;4974603;28;20669;-71
2023/09/16 10:30:36;;;;;;;29.27;27.48;;;23.60;99.90;;;;;;4939682;28;20050;-74
2023/09/16 10:33:09;;;;;;;30.30;28.20;;;23.90;99.90;;;;;;4953072;28;20074;-74
2023/09/16 10:35:40;;;;;;;30.25;28.15;;;23.80;99.90;;;;;;4955526;28;20038;-75
2023/09/16 10:38:09;;;;;;;28.15;26.45;;;23.10;99.90;;;;;;4942127;28;20043;-73
2023/09/16 10:40:37;;;;;;;28.88;27.17;;;23.00;99.90;;;;;;4969595;28;20469;-74
2023/09/16 10:43:05;;;;;;;29.75;27.95;;;23.30;99.90;;;;;;4963709;28;20457;-74
2023/09/16 10:45:32;;;;;;;29.38;27.48;;;23.10;99.90;;;;;;4976619;28;20058;-73
2023/09/16 10:48:01;;;;;;;29.83;27.98;;;23.30;99.90;;;;;;4979386;28;20048;-73
2023/09/16 10:50:30;;;;;;;29.55;27.75;;;23.40;99.90;;;;;;4978661;28;20047;-73
2023/09/16 10:53:05;;;;;;;30.13;28.27;;;23.50;99.90;;;;;;4974930;28;20830;-74
2023/09/16 10:55:49;;;;;;;30.25;28.27;;;23.70;99.90;;;;;;4970037;28;20055;-74
2023/09/16 10:58:32;;;;;;;29.77;27.77;;;23.90;99.90;;;;;;4966497;28;20047;-73
2023/09/16 11:01:01;;;;;;;28.50;26.58;;;23.80;99.90;;;;;;4962194;28;20174;-74
2023/09/16 11:03:33;;;;;;;29.23;27.42;;;23.60;99.90;;;;;;4977003;28;20138;-72
2023/09/16 11:06:01;;;;;;;28.58;26.77;;;23.80;99.90;;;;;;5025337;28;20399;-73
2023/09/16 11:08:28;;;;;;;29.23;27.42;;;24.10;99.90;;;;;;4971062;28;20042;-72
2023/09/16 11:10:58;;;;;;;29.27;27.27;;;24.20;99.90;;;;;;4961123;28;20038;-74
2023/09/16 11:13:27;;;;;;;29.65;27.73;;;24.20;99.90;;;;;;4953575;28;20923;-74
2023/09/16 11:15:58;;;;;;;30.52;28.52;;;24.20;99.90;;;;;;4970940;28;20065;-73
2023/09/16 11:18:26;;;;;;;29.95;28.25;;;24.00;99.90;;;;;;4961199;28;20764;-74
2023/09/16 11:20:53;;;;;;;28.50;26.42;;;24.00;99.90;;;;;;4961413;28;20462;-74
2023/09/16 11:23:21;;;;;;;29.98;28.10;;;24.40;99.90;;;;;;4974210;28;20050;-73
2023/09/16 11:25:48;;;;;;;29.73;27.95;;;24.80;99.90;;;;;;4971998;28;21503;-73
2023/09/16 11:28:18;;;;;;;28.70;27.00;;;24.70;99.90;;;;;;4981881;28;20145;-74
2023/09/16 11:30:56;;;;;;;30.17;28.08;;;24.70;99.90;;;;;;4976047;28;20121;-74
2023/09/16 11:33:30;;;;;;;30.08;27.98;;;24.70;99.90;;;;;;4953577;28;20050;-73
2023/09/16 11:36:14;;;;;;;29.00;27.20;;;24.70;99.90;;;;;;4977433;28;20039;-73
2023/09/16 11:38:54;;;;;;;29.85;27.85;;;24.80;99.90;;;;;;4973667;28;20050;-74
2023/09/16 11:41:21;;;;;;;29.10;27.30;;;24.90;99.90;;;;;;5022975;28;20035;-72
2023/09/16 11:43:48;;;;;;;28.92;26.83;;;25.00;99.90;;;;;;4954801;28;20090;-73
2023/09/16 11:46:14;;;;;;;30.70;28.85;;;25.30;99.90;;;;;;4973065;28;20042;-74
2023/09/16 11:48:48;;;;;;;31.23;29.33;;;25.40;99.90;;;;;;4974860;28;20036;-73
2023/09/16 11:51:16;;;;;;;30.73;28.83;;;25.20;99.90;;;;;;4973749;28;20043;-73
2023/09/16 11:53:45;;;;;;;32.58;29.95;;;24.80;99.90;;;;;;4962495;28;20313;-75
2023/09/16 11:56:15;;;;;;;30.35;28.38;;;24.50;99.90;;;;;;4972771;28;20045;-74
2023/09/16 11:58:44;;;;;;;31.48;29.58;;;24.50;99.90;;;;;;4972521;28;20046;-72
2023/09/16 12:01:12;;;;;;;31.58;29.60;;;24.40;99.90;;;;;;4972404;28;20047;-73
2023/09/16 12:03:41;;;;;;;30.95;28.85;;;24.70;99.90;;;;;;4973761;28;20072;-73
2023/09/16 12:06:10;;;;;;;31.15;28.65;;;24.60;99.90;;;;;;4973836;28;20139;-74
2023/09/16 12:08:40;;;;;;;30.85;28.75;;;24.70;99.90;;;;;;4972000;28;20038;-73
2023/09/16 12:11:07;;;;;;;30.45;28.45;;;25.00;99.90;;;;;;4963887;28;20039;-73
2023/09/16 12:13:34;;;;;;;30.83;28.90;;;25.10;99.90;;;;;;4948008;28;20068;-73
2023/09/16 12:16:01;;;;;;;31.25;29.35;;;25.30;99.90;;;;;;4963669;28;20047;-73
2023/09/16 12:18:28;;;;;;;31.70;29.70;;;25.50;99.90;;;;;;4969703;28;20073;-73
2023/09/16 12:20:55;;;;;;;32.15;30.05;;;25.40;99.90;;;;;;4978553;28;20591;-73
2023/09/16 12:23:24;;;;;;;31.92;30.02;;;25.10;99.90;;;;;;4966246;28;20172;-71
2023/09/16 12:25:51;;;;;;;32.80;30.35;;;24.90;99.90;;;;;;4969610;28;20100;-71
2023/09/16 12:28:22;;;;;;;28.42;26.77;;;25.00;99.90;;;;;;4945299;28;20475;-71
2023/09/16 12:30:55;;;;;;;30.88;29.08;;;24.90;99.90;;;;;;4954097;28;20139;-72
2023/09/16 12:33:36;;;;;;;31.13;29.23;;;24.90;99.90;;;;;;4971736;28;20055;-72
2023/09/16 12:36:03;;;;;;;31.77;29.67;;;25.00;99.90;;;;;;4982792;28;20070;-73